createdAt,value
2023-01-02T00:01:35.312Z,8.90
2023-01-02T00:04:07.380Z,8.90
2023-01-02T00:06:39.481Z,8.90
2023-01-02T00:09:13.804Z,8.90
2023-01-02T00:11:45.605Z,9.00
2023-01-02T00:14:17.404Z,9.00
2023-01-02T00:16:51.374Z,8.90
2023-01-02T00:19:23.231Z,9.00
2023-01-02T00:21:57.339Z,9.00
2023-01-02T00:24:29.358Z,8.90
2023-01-02T00:27:01.148Z,8.90
2023-01-02T00:29:32.959Z,8.90
2023-01-02T00:32:04.864Z,8.90
2023-01-02T00:34:36.736Z,8.90
2023-01-02T00:37:08.600Z,8.90
2023-01-02T00:39:40.463Z,8.90
2023-01-02T00:42:14.691Z,8.90
2023-01-02T00:44:48.607Z,8.90
2023-01-02T00:47:20.365Z,8.90
2023-01-02T00:49:52.217Z,8.90
2023-01-02T00:52:24.008Z,9.00
2023-01-02T00:54:55.827Z,9.00
2023-01-02T00:57:27.588Z,8.90
2023-01-02T00:59:59.457Z,9.00
2023-01-02T01:02:31.349Z,8.90
2023-01-02T01:05:03.381Z,8.90
2023-01-02T01:07:35.115Z,8.90
2023-01-02T01:10:07.251Z,8.90
2023-01-02T01:12:39.001Z,8.90
2023-01-02T01:15:10.955Z,8.90
2023-01-02T01:17:42.860Z,8.90
2023-01-02T01:20:14.752Z,8.90
2023-01-02T01:22:46.572Z,8.90
2023-01-02T01:25:18.554Z,8.90
2023-01-02T01:27:52.520Z,8.90
2023-01-02T01:30:24.329Z,8.90
2023-01-02T01:32:56.107Z,8.80
2023-01-02T01:35:28.015Z,8.90
2023-01-02T01:37:59.802Z,8.80
2023-01-02T01:40:37.336Z,8.90
2023-01-02T01:43:17.512Z,8.90
2023-01-02T01:45:49.371Z,8.80
2023-01-02T01:48:23.499Z,8.90
2023-01-02T01:50:55.313Z,8.90
2023-01-02T01:53:27.092Z,8.90
2023-01-02T01:56:01.527Z,8.90
2023-01-02T01:58:35.611Z,8.90
2023-01-02T02:01:07.503Z,8.90
2023-01-02T02:03:39.994Z,8.90
2023-01-02T02:06:14.359Z,8.90
2023-01-02T02:09:02.965Z,8.90
2023-01-02T02:11:35.072Z,8.90
2023-01-02T02:14:06.828Z,8.90
2023-01-02T02:16:38.663Z,9.00
2023-01-02T02:19:25.817Z,9.00
2023-01-02T02:22:00.632Z,9.00
2023-01-02T02:24:51.127Z,9.00
2023-01-02T02:27:32.119Z,9.00
2023-01-02T02:30:17.465Z,9.00
2023-01-02T02:32:58.403Z,9.00
2023-01-02T02:35:30.434Z,9.00
2023-01-02T02:38:20.735Z,9.00
2023-01-02T02:41:04.494Z,9.00
2023-01-02T02:43:55.174Z,9.00
2023-01-02T02:46:39.066Z,9.00
2023-01-02T02:49:24.610Z,9.00
2023-01-02T02:51:56.336Z,9.00
2023-01-02T02:54:33.597Z,9.00
2023-01-02T02:57:06.431Z,9.00
2023-01-02T02:59:39.323Z,9.00
2023-01-02T03:02:15.026Z,9.00
2023-01-02T03:04:48.597Z,9.00
2023-01-02T03:07:23.337Z,8.90
2023-01-02T03:10:10.260Z,8.90
2023-01-02T03:12:50.980Z,8.90
2023-01-02T03:15:28.109Z,8.80
2023-01-02T03:18:08.723Z,8.80
2023-01-02T03:20:57.989Z,8.80
2023-01-02T03:23:31.225Z,8.80
2023-01-02T03:26:04.566Z,8.80
2023-01-02T03:28:37.912Z,8.70
2023-01-02T03:31:13.198Z,8.70
2023-01-02T03:33:52.087Z,8.70
2023-01-02T03:36:25.619Z,8.70
2023-01-02T03:39:00.255Z,8.70
2023-01-02T03:41:41.628Z,8.70
2023-01-02T03:44:14.333Z,8.70
2023-01-02T03:46:56.602Z,8.70
2023-01-02T03:49:36.884Z,8.70
2023-01-02T03:52:08.699Z,8.70
2023-01-02T03:54:40.499Z,8.70
2023-01-02T03:57:23.198Z,8.70
2023-01-02T03:59:57.973Z,8.70
2023-01-02T04:02:29.909Z,8.70
2023-01-02T04:05:20.026Z,8.70
2023-01-02T04:07:58.949Z,8.70
2023-01-02T04:10:31.188Z,8.70
2023-01-02T04:13:05.476Z,8.70
2023-01-02T04:15:38.305Z,8.70
2023-01-02T04:18:12.418Z,8.70
2023-01-02T04:20:47.531Z,8.60
2023-01-02T04:23:22.517Z,8.70
2023-01-02T04:26:00.250Z,8.60
2023-01-02T04:28:33.438Z,8.70
2023-01-02T04:31:19.524Z,8.70
2023-01-02T04:33:53.658Z,8.60
2023-01-02T04:36:27.787Z,8.60
2023-01-02T04:39:01.927Z,8.70
2023-01-02T04:41:33.933Z,8.70
2023-01-02T04:44:05.764Z,8.70
2023-01-02T04:46:37.642Z,8.70
2023-01-02T04:49:10.149Z,8.70
2023-01-02T04:51:41.964Z,8.70
2023-01-02T04:54:13.770Z,8.70
2023-01-02T04:56:48.470Z,8.70
2023-01-02T04:59:20.281Z,8.70
2023-01-02T05:01:52.123Z,8.70
2023-01-02T05:04:23.986Z,8.80
2023-01-02T05:06:58.179Z,8.80
2023-01-02T05:09:30.161Z,8.80
2023-01-02T05:12:01.918Z,8.80
2023-01-02T05:14:33.724Z,8.80
2023-01-02T05:17:05.499Z,8.90
2023-01-02T05:19:37.355Z,8.90
2023-01-02T05:22:30.255Z,8.90
2023-01-02T05:25:02.054Z,8.90
2023-01-02T05:27:33.821Z,8.90
2023-01-02T05:30:08.601Z,8.90
2023-01-02T05:32:40.362Z,8.90
2023-01-02T05:35:12.240Z,8.90
2023-01-02T05:37:44.017Z,8.90
2023-01-02T05:40:15.855Z,8.90
2023-01-02T05:42:47.631Z,8.90
2023-01-02T05:45:19.575Z,8.90
2023-01-02T05:47:51.374Z,8.90
2023-01-02T05:50:23.192Z,9.00
2023-01-02T05:52:57.431Z,9.00
2023-01-02T05:55:29.205Z,9.00
2023-01-02T05:58:02.485Z,9.00
2023-01-02T06:00:37.290Z,8.90
2023-01-02T06:03:09.120Z,8.90
2023-01-02T06:05:41.082Z,8.90
2023-01-02T06:08:13.035Z,8.90
2023-01-02T06:10:51.483Z,8.90
2023-01-02T06:13:23.227Z,8.90
2023-01-02T06:15:55.682Z,8.90
2023-01-02T06:18:28.362Z,8.90
2023-01-02T06:21:04.415Z,8.80
2023-01-02T06:23:36.459Z,8.90
2023-01-02T06:26:09.840Z,8.90
2023-01-02T06:28:42.221Z,8.90
2023-01-02T06:31:14.937Z,8.80
2023-01-02T06:33:46.806Z,8.90
2023-01-02T06:36:18.855Z,8.80
2023-01-02T06:38:50.660Z,8.90
2023-01-02T06:41:22.520Z,8.90
2023-01-02T06:43:54.409Z,8.90
2023-01-02T06:46:26.269Z,8.90
2023-01-02T06:48:58.066Z,8.80
2023-01-02T06:51:29.841Z,8.80
2023-01-02T06:54:01.595Z,8.80
2023-01-02T06:56:33.417Z,8.80
2023-01-02T06:59:05.163Z,8.80
2023-01-02T07:01:37.036Z,8.80
2023-01-02T07:04:14.876Z,8.80
2023-01-02T07:06:46.690Z,8.80
2023-01-02T07:09:18.486Z,8.80
2023-01-02T07:11:50.315Z,8.70
2023-01-02T07:14:22.163Z,8.80
2023-01-02T07:16:53.951Z,8.80
2023-01-02T07:19:25.751Z,8.80
2023-01-02T07:21:57.541Z,8.80
2023-01-02T07:24:29.356Z,8.80
2023-01-02T07:27:04.139Z,8.80
2023-01-02T07:29:35.910Z,8.80
2023-01-02T07:32:09.999Z,8.70
2023-01-02T07:34:41.856Z,8.80
2023-01-02T07:37:13.762Z,8.70
2023-01-02T07:39:45.554Z,8.70
2023-01-02T07:42:17.436Z,8.70
2023-01-02T07:44:51.550Z,8.70
2023-01-02T07:47:23.377Z,8.70
2023-01-02T07:49:55.106Z,8.70
2023-01-02T07:52:26.903Z,8.70
2023-01-02T07:55:01.065Z,8.70
2023-01-02T07:57:32.900Z,8.70
2023-01-02T08:00:05.063Z,8.70
2023-01-02T08:02:37.040Z,8.70
2023-01-02T08:05:11.394Z,8.80
2023-01-02T08:07:45.283Z,8.70
2023-01-02T08:10:17.277Z,8.70
2023-01-02T08:12:51.624Z,8.80
2023-01-02T08:15:24.216Z,8.80
2023-01-02T08:17:56.599Z,8.80
2023-01-02T08:20:28.375Z,8.70
2023-01-02T08:23:00.212Z,8.70
2023-01-02T08:25:34.303Z,8.70
2023-01-02T08:28:06.110Z,8.70
2023-01-02T08:30:40.504Z,8.80
2023-01-02T08:33:14.742Z,8.80
2023-01-02T08:35:46.480Z,8.80
2023-01-02T08:38:20.763Z,8.80
2023-01-02T08:40:52.600Z,8.80
2023-01-02T08:43:24.561Z,8.80
2023-01-02T08:45:56.357Z,8.80
2023-01-02T08:48:28.194Z,8.80
2023-01-02T08:51:02.112Z,8.80
2023-01-02T08:53:33.931Z,8.90
2023-01-02T08:56:25.760Z,8.90
2023-01-02T08:59:02.127Z,8.90
2023-01-02T09:01:34.454Z,8.90
2023-01-02T09:04:12.550Z,8.90
2023-01-02T09:06:45.253Z,9.00
2023-01-02T09:09:17.599Z,9.00
2023-01-02T09:11:52.618Z,9.00
2023-01-02T09:14:24.493Z,9.00
2023-01-02T09:16:58.114Z,9.00
2023-01-02T09:19:30.193Z,9.10
2023-01-02T09:22:02.138Z,9.10
2023-01-02T09:24:33.971Z,9.10
2023-01-02T09:27:05.775Z,9.10
2023-01-02T09:29:37.630Z,9.20
2023-01-02T09:32:09.513Z,9.20
2023-01-02T09:34:41.454Z,9.30
2023-01-02T09:37:13.292Z,9.30
2023-01-02T09:39:45.153Z,9.40
2023-01-02T09:42:17.280Z,9.40
2023-01-02T09:44:52.937Z,9.50
2023-01-02T09:47:26.244Z,9.50
2023-01-02T09:50:01.340Z,9.50
2023-01-02T09:52:35.555Z,9.50
2023-01-02T09:55:17.750Z,9.60
2023-01-02T09:57:57.153Z,9.60
2023-01-02T10:00:35.627Z,9.60
2023-01-02T10:03:46.395Z,9.70
2023-01-02T10:06:21.600Z,9.70
2023-01-02T10:08:58.900Z,9.70
2023-01-02T10:11:30.707Z,9.60
2023-01-02T10:14:19.192Z,9.70
2023-01-02T10:16:55.079Z,9.60
2023-01-02T10:19:26.885Z,9.60
2023-01-02T10:22:00.874Z,9.70
2023-01-02T10:24:47.595Z,9.70
2023-01-02T10:27:25.544Z,9.70
2023-01-02T10:30:17.719Z,9.80
2023-01-02T10:33:01.361Z,9.80
2023-01-02T10:35:42.014Z,9.90
2023-01-02T10:38:16.477Z,9.90
2023-01-02T10:40:50.129Z,10.00
2023-01-02T10:43:24.326Z,10.00
2023-01-02T10:45:58.166Z,10.10
2023-01-02T10:48:32.066Z,10.10
2023-01-02T10:51:06.596Z,10.20
2023-01-02T10:53:38.521Z,10.20
2023-01-02T10:56:18.549Z,10.30
2023-01-02T10:58:51.092Z,10.30
2023-01-02T11:01:23.115Z,10.30
2023-01-02T11:03:57.803Z,10.40
2023-01-02T11:06:38.817Z,10.40
2023-01-02T11:09:19.729Z,10.40
2023-01-02T11:12:08.864Z,10.40
2023-01-02T11:14:43.121Z,10.40
2023-01-02T11:17:21.679Z,10.40
2023-01-02T11:19:55.531Z,10.50
2023-01-02T11:22:35.502Z,10.50
2023-01-02T11:25:21.008Z,10.60
2023-01-02T11:27:56.267Z,10.70
2023-01-02T11:30:43.040Z,10.80
2023-01-02T11:33:15.303Z,10.90
2023-01-02T11:35:48.476Z,11.00
2023-01-02T11:38:40.207Z,11.10
2023-01-02T11:41:24.309Z,11.10
2023-01-02T11:43:59.098Z,11.20
2023-01-02T11:46:33.960Z,11.20
2023-01-02T11:49:07.535Z,11.20
2023-01-02T11:51:42.240Z,11.20
2023-01-02T11:54:19.450Z,11.30
2023-01-02T11:56:56.171Z,11.30
2023-01-02T11:59:40.299Z,11.30
2023-01-02T12:02:20.729Z,11.30
2023-01-02T12:04:52.638Z,11.30
2023-01-02T12:07:42.928Z,11.30
2023-01-02T12:10:33.182Z,11.30
2023-01-02T12:13:19.418Z,11.30
2023-01-02T12:16:07.096Z,11.30
2023-01-02T12:19:01.014Z,11.30
2023-01-02T12:21:39.754Z,11.40
2023-01-02T12:24:32.687Z,11.40
2023-01-02T12:27:22.810Z,11.40
2023-01-02T12:30:16.378Z,11.40
2023-01-02T12:33:17.701Z,11.40
2023-01-02T12:36:12.301Z,11.40
2023-01-02T12:39:02.886Z,11.50
2023-01-02T12:42:01.020Z,11.50
2023-01-02T12:44:45.689Z,11.50
2023-01-02T12:47:20.444Z,11.50
2023-01-02T12:50:00.673Z,11.50
2023-01-02T12:52:46.026Z,11.50
2023-01-02T12:55:44.062Z,11.50
2023-01-02T12:58:26.157Z,11.50
2023-01-02T13:01:07.935Z,11.50
2023-01-02T13:03:39.797Z,11.50
2023-01-02T13:06:45.814Z,11.50
2023-01-02T13:09:10.951Z,11.50
2023-01-02T13:11:52.163Z,11.50
2023-01-02T13:14:28.083Z,11.50
2023-01-02T13:17:22.937Z,11.50
2023-01-02T13:20:00.411Z,11.50
2023-01-02T13:22:37.682Z,11.50
2023-01-02T13:25:14.125Z,11.50
2023-01-02T13:27:46.528Z,11.50
2023-01-02T13:30:33.778Z,11.50
2023-01-02T13:33:16.193Z,11.50
2023-01-02T13:35:50.915Z,11.50
2023-01-02T13:38:26.203Z,11.50
2023-01-02T13:40:59.533Z,11.50
2023-01-02T13:43:32.380Z,11.40
2023-01-02T13:46:04.336Z,11.40
2023-01-02T13:48:43.517Z,11.40
2023-01-02T13:51:22.583Z,11.40
2023-01-02T13:53:54.549Z,11.30
2023-01-02T13:56:27.194Z,11.30
2023-01-02T13:59:43.129Z,11.30
2023-01-02T14:02:16.066Z,11.30
2023-01-02T14:04:48.076Z,11.30
2023-01-02T14:07:25.927Z,11.30
2023-01-02T14:10:07.207Z,11.30
2023-01-02T14:12:53.305Z,11.20
2023-01-02T14:15:26.559Z,11.20
2023-01-02T14:18:13.158Z,11.20
2023-01-02T14:20:45.240Z,11.20
2023-01-02T14:23:35.338Z,11.20
2023-01-02T14:26:21.074Z,11.20
2023-01-02T14:28:53.261Z,11.10
2023-01-02T14:31:34.824Z,11.20
2023-01-02T14:34:06.947Z,11.20
2023-01-02T14:36:46.432Z,11.20
2023-01-02T14:39:20.472Z,11.20
2023-01-02T14:42:11.123Z,11.20
2023-01-02T14:44:45.070Z,11.20
2023-01-02T14:47:19.536Z,11.20
2023-01-02T14:49:55.248Z,11.20
2023-01-02T14:52:28.912Z,11.20
2023-01-02T14:55:05.509Z,11.20
2023-01-02T14:57:41.784Z,11.10
2023-01-02T15:00:33.388Z,11.20
2023-01-02T15:03:17.138Z,11.20
2023-01-02T15:05:57.408Z,11.20
2023-01-02T15:08:36.576Z,11.20
2023-01-02T15:11:53.461Z,11.20
2023-01-02T15:14:25.233Z,11.30
2023-01-02T15:16:59.399Z,11.30
2023-01-02T15:19:32.819Z,11.30
2023-01-02T15:22:18.684Z,11.30
2023-01-02T15:24:52.074Z,11.30
2023-01-02T15:27:34.186Z,11.30
2023-01-02T15:30:21.545Z,11.30
2023-01-02T15:32:53.353Z,11.30
2023-01-02T15:35:29.970Z,11.30
2023-01-02T15:38:02.811Z,11.30
2023-01-02T15:40:35.500Z,11.40
2023-01-02T15:43:31.056Z,11.40
2023-01-02T15:46:03.432Z,11.40
2023-01-02T15:48:37.726Z,11.40
2023-01-02T15:51:14.511Z,11.40
2023-01-02T15:53:49.973Z,11.50
2023-01-02T15:56:35.772Z,11.50
2023-01-02T15:59:43.183Z,11.50
2023-01-02T16:02:33.649Z,11.50
2023-01-02T16:05:09.819Z,11.50
2023-01-02T16:07:42.285Z,11.50
2023-01-02T16:10:20.927Z,11.50
2023-01-02T16:12:54.760Z,11.50
2023-01-02T16:15:29.518Z,11.50
2023-01-02T16:18:01.958Z,11.50
2023-01-02T16:20:36.162Z,11.50
2023-01-02T16:23:08.356Z,11.40
2023-01-02T16:25:44.848Z,11.50
2023-01-02T16:28:34.855Z,11.50
2023-01-02T16:31:08.543Z,11.40
2023-01-02T16:33:42.107Z,11.40
2023-01-02T16:36:13.953Z,11.40
2023-01-02T16:38:54.664Z,11.40
2023-01-02T16:41:34.033Z,11.40
2023-01-02T16:44:14.250Z,11.40
2023-01-02T16:46:47.048Z,11.40
2023-01-02T16:49:22.589Z,11.30
2023-01-02T16:51:54.608Z,11.40
2023-01-02T16:54:26.410Z,11.30
2023-01-02T16:56:58.315Z,11.30
2023-01-02T16:59:30.738Z,11.20
2023-01-02T17:02:02.739Z,11.20
2023-01-02T17:04:34.606Z,11.20
2023-01-02T17:07:06.734Z,11.20
2023-01-02T17:09:38.482Z,11.20
2023-01-02T17:12:11.017Z,11.20
2023-01-02T17:14:43.105Z,11.20
2023-01-02T17:17:15.008Z,11.20
2023-01-02T17:19:46.860Z,11.20
2023-01-02T17:22:21.266Z,11.30
2023-01-02T17:24:53.113Z,11.30
2023-01-02T17:27:24.996Z,11.30
2023-01-02T17:29:56.754Z,11.30
2023-01-02T17:32:31.486Z,11.20
2023-01-02T17:35:06.444Z,11.20
2023-01-02T17:37:38.882Z,11.10
2023-01-02T17:40:11.612Z,11.10
2023-01-02T17:42:46.189Z,11.10
2023-01-02T17:45:18.247Z,11.10
2023-01-02T17:48:11.064Z,11.20
2023-01-02T17:50:44.440Z,11.20
2023-01-02T17:53:16.339Z,11.20
2023-01-02T17:56:21.696Z,11.30
2023-01-02T17:58:50.947Z,11.30
2023-01-02T18:01:22.858Z,11.40
2023-01-02T18:03:54.874Z,11.40
2023-01-02T18:06:26.769Z,11.40
2023-01-02T18:09:01.545Z,11.40
2023-01-02T18:11:34.756Z,11.40
2023-01-02T18:14:12.757Z,11.50
2023-01-02T18:16:45.635Z,11.50
2023-01-02T18:19:20.334Z,11.50
2023-01-02T18:21:52.391Z,11.50
2023-01-02T18:24:31.639Z,11.50
2023-01-02T18:27:24.277Z,11.50
2023-01-02T18:30:08.324Z,11.60
2023-01-02T18:32:41.502Z,11.60
2023-01-02T18:35:46.799Z,11.60
2023-01-02T18:38:23.617Z,11.70
2023-01-02T18:41:00.264Z,11.70
2023-01-02T18:43:35.884Z,11.70
2023-01-02T18:46:15.810Z,11.80
2023-01-02T18:48:47.817Z,11.80
2023-01-02T18:51:21.695Z,11.90
2023-01-02T18:53:57.783Z,11.90
2023-01-02T18:56:30.764Z,12.00
2023-01-02T18:59:16.073Z,12.00
2023-01-02T19:01:50.543Z,12.10
2023-01-02T19:04:28.282Z,12.10
2023-01-02T19:07:08.680Z,12.00
2023-01-02T19:09:40.528Z,12.10
2023-01-02T19:12:34.260Z,12.20
2023-01-02T19:15:44.095Z,12.10
2023-01-02T19:18:23.742Z,12.10
2023-01-02T19:21:21.945Z,12.10
2023-01-02T19:23:59.628Z,12.10
2023-01-02T19:26:43.367Z,12.10
2023-01-02T19:29:18.574Z,12.10
2023-01-02T19:31:56.687Z,12.00
2023-01-02T19:34:28.688Z,12.00
2023-01-02T19:37:07.293Z,12.00
2023-01-02T19:39:45.968Z,12.00
2023-01-02T19:42:20.761Z,11.90
2023-01-02T19:44:52.656Z,11.70
2023-01-02T19:47:27.801Z,11.60
2023-01-02T19:50:00.247Z,11.50
2023-01-02T19:52:33.503Z,11.40
2023-01-02T19:55:06.333Z,11.30
2023-01-02T19:57:38.313Z,11.30
2023-01-02T20:00:15.355Z,11.20
2023-01-02T20:02:54.371Z,11.20
2023-01-02T20:05:32.010Z,11.20
2023-01-02T20:08:04.052Z,11.10
2023-01-02T20:10:35.998Z,11.10
2023-01-02T20:13:08.093Z,11.10
2023-01-02T20:15:42.586Z,11.00
2023-01-02T20:18:18.084Z,10.90
2023-01-02T20:20:49.934Z,10.80
2023-01-02T20:23:24.171Z,10.70
2023-01-02T20:25:58.169Z,10.60
2023-01-02T20:28:31.757Z,10.60
2023-01-02T20:31:06.115Z,10.50
2023-01-02T20:33:37.967Z,10.40
2023-01-02T20:36:13.779Z,10.20
2023-01-02T20:38:45.862Z,10.10
2023-01-02T20:41:20.150Z,9.90
2023-01-02T20:43:52.052Z,9.70
2023-01-02T20:46:24.003Z,9.50
2023-01-02T20:48:55.818Z,9.50
2023-01-02T20:51:27.714Z,9.30
2023-01-02T20:54:02.829Z,9.20
2023-01-02T20:56:35.212Z,9.20
2023-01-02T20:59:07.023Z,9.10
2023-01-02T21:01:39.109Z,9.00
2023-01-02T21:04:13.567Z,9.00
2023-01-02T21:06:45.499Z,8.90
2023-01-02T21:09:17.306Z,8.90
2023-01-02T21:11:51.358Z,8.90
2023-01-02T21:14:24.399Z,8.90
2023-01-02T21:16:56.331Z,8.90
2023-01-02T21:19:29.359Z,8.80
2023-01-02T21:22:01.194Z,8.80
2023-01-02T21:24:33.194Z,8.90
2023-01-02T21:27:12.628Z,8.80
2023-01-02T21:29:50.266Z,8.80
2023-01-02T21:32:22.100Z,8.80
2023-01-02T21:34:55.435Z,8.80
2023-01-02T21:37:27.324Z,8.80
2023-01-02T21:39:59.154Z,8.70
2023-01-02T21:42:31.376Z,8.70
2023-01-02T21:45:05.732Z,8.60
2023-01-02T21:47:38.976Z,8.60
2023-01-02T21:50:10.838Z,8.50
2023-01-02T21:52:42.889Z,8.50
2023-01-02T21:55:17.786Z,8.50
2023-01-02T22:00:42.571Z,8.50
2023-01-02T22:03:16.872Z,8.50
2023-01-02T22:05:48.948Z,8.50
2023-01-02T22:08:23.254Z,8.50
2023-01-02T22:11:15.174Z,8.50
2023-01-02T22:13:46.945Z,8.40
2023-01-02T22:16:18.821Z,8.40
2023-01-02T22:18:50.785Z,8.40
2023-01-02T22:21:22.561Z,8.40
2023-01-02T22:23:54.379Z,8.40
2023-01-02T22:26:26.261Z,8.40
2023-01-02T22:28:58.271Z,8.40
2023-01-02T22:31:30.306Z,8.30
2023-01-02T22:34:02.497Z,8.40
2023-01-02T22:36:34.520Z,8.30
2023-01-02T22:39:27.608Z,8.30
2023-01-02T22:42:57.548Z,8.30
2023-01-02T22:45:13.505Z,8.20
2023-01-02T22:47:45.945Z,8.20
2023-01-02T22:50:23.136Z,8.20
2023-01-02T22:52:55.457Z,8.20
2023-01-02T22:55:27.514Z,8.20
2023-01-02T22:58:01.385Z,8.20
2023-01-02T23:00:33.182Z,8.20
2023-01-02T23:03:05.891Z,8.20
2023-01-02T23:05:37.928Z,8.20
2023-01-02T23:08:09.816Z,8.20
2023-01-02T23:10:41.744Z,8.10
2023-01-02T23:13:13.541Z,8.10
2023-01-02T23:16:03.920Z,8.10
2023-01-02T23:18:56.995Z,8.00
2023-01-02T23:21:30.633Z,8.00
2023-01-02T23:24:05.303Z,8.00
2023-01-02T23:26:38.662Z,8.00
2023-01-02T23:29:11.145Z,7.90
2023-01-02T23:31:44.426Z,7.90
2023-01-02T23:34:17.976Z,7.90
2023-01-02T23:36:50.507Z,7.90
2023-01-02T23:39:25.489Z,7.90
2023-01-02T23:41:57.687Z,7.90
2023-01-02T23:44:29.546Z,7.90
2023-01-02T23:47:07.087Z,7.90
2023-01-02T23:49:41.216Z,7.80
2023-01-02T23:52:13.132Z,7.80
2023-01-02T23:54:44.957Z,7.70
2023-01-02T23:57:16.781Z,7.80
2023-01-02T23:59:48.567Z,7.80
